Estación Meteorológica Peña el Pijo (Robertgarden) [ 06/22/17 18:32:40 CEST ]

Fecha Hora Presion(HPa) Temp (°C) Humedad % Rocio (°C) Viento ( m/s) Direccion Lluvia 1Hora(mm) Lluvia 24H(mm) LLuvia Total(mm)
2017-May-20 01:01:51 1013.000 9.8 66 3.7         1390.83
2017-May-20 02:01:42 1013.000 8.8 69 3.4         1390.83
2017-May-20 03:01:38 1012.800 7.6 70 2.5         1390.83
2017-May-20 04:05:08 1012.600 6.9 72 2.2         1390.83
2017-May-20 05:02:02 1012.700 6.3 73 1.8         1390.83
2017-May-20 06:02:02 1012.700 5.8 74 1.5         1390.83
2017-May-20 07:01:43 1013.000 5.3 76 1.4         1390.83
2017-May-20 08:01:40 1013.500 8.1 79 4.7         1390.83
2017-May-20 09:01:56 1013.600 14.4 57 6.0         1390.83
2017-May-20 10:01:42 1013.700 20.0 52 9.8         1390.83
2017-May-20 11:01:42 1013.600 23.6 44 10.6         1390.83
2017-May-20 12:01:47 1013.800 27.1 35 10.2         1390.83
2017-May-20 13:01:48 1013.500 27.6 31 8.9         1390.83
2017-May-20 14:01:51 1013.500 26.9 31 8.3 1.2 SSW     1390.83
2017-May-20 15:01:57 1013.100 27.9 30 8.7         1390.83
2017-May-20 16:01:56 1012.900 30.0 29 10.0 0.3 S     1390.83
2017-May-20 17:01:44 1012.700 28.4 31 9.6         1390.83
2017-May-20 18:01:54 1012.700 27.8 30 9.1         1390.83
2017-May-20 19:01:36 1012.600 25.9 33 8.3         1390.83
2017-May-20 20:01:29 1012.900 23.3 38 8.1         1390.83
2017-May-20 21:01:37 1013.300 19.7 44 7.0         1390.83
2017-May-20 22:01:42 1013.700 17.2 51 6.9         1390.83
2017-May-20 23:01:34 1014.700 15.5 55 6.5         1390.83

Temperatura Máxima:30°    Temperatura Mínima:
Presión Máxima:1014.700 Hpa    Presión Mínima:1012.600 Hpa


Volver